Time;durP1;ratioP1;P1;durP2;ratioP2;P2;SDS_P1;SDS_P2;PMS_P1;PMS_P2;Temp;Humidity;BMP_temperature;BMP_pressure;BME280_temperature;BME280_humidity;BME280_pressure;Samples;Min_cycle;Max_cycle;Signal;HPM_P1;HPM_P2
2023/08/18 00:02:03;;;;;;;8.18;6.55;;;;;;;26.46;72.92;100802.09;4917412;29;20051;-71
2023/08/18 00:04:30;;;;;;;9.27;7.03;;;;;;;26.73;71.10;100789.94;4917248;29;20059;-71
2023/08/18 00:06:58;;;;;;;10.57;7.20;;;;;;;26.78;72.05;100784.75;4916128;29;20052;-71
2023/08/18 00:09:26;;;;;;;7.38;6.68;;;;;;;26.42;72.25;100790.84;4916904;29;20056;-72
2023/08/18 00:11:55;;;;;;;11.07;7.30;;;;;;;26.59;72.59;100787.78;4916862;29;20048;-71
2023/08/18 00:14:23;;;;;;;8.63;7.05;;;;;;;26.53;72.63;100782.53;4917140;29;20122;-71
2023/08/18 00:16:51;;;;;;;9.88;7.28;;;;;;;26.65;72.97;100781.44;4917046;29;20044;-71
2023/08/18 00:19:19;;;;;;;9.02;7.90;;;;;;;26.56;73.74;100784.56;4917049;29;20059;-71
2023/08/18 00:21:47;;;;;;;10.95;7.45;;;;;;;26.75;73.42;100777.13;4916968;29;20051;-71
2023/08/18 00:24:15;;;;;;;9.32;7.07;;;;;;;26.78;73.81;100779.16;4917138;29;20491;-71
2023/08/18 00:26:44;;;;;;;8.02;7.18;;;;;;;26.83;73.33;100780.78;4916216;29;20059;-71
2023/08/18 00:29:12;;;;;;;8.48;7.38;;;;;;;26.80;73.73;100775.97;4915664;29;20044;-71
2023/08/18 00:31:40;;;;;;;7.30;6.60;;;;;;;26.81;73.31;100788.78;4904061;29;20504;-71
2023/08/18 00:34:08;;;;;;;9.00;7.03;;;;;;;26.86;73.30;100784.81;4896839;29;20503;-71
2023/08/18 00:36:36;;;;;;;8.60;7.22;;;;;;;26.86;72.73;100782.81;4897820;29;20385;-71
2023/08/18 00:39:05;;;;;;;8.18;6.85;;;;;;;26.86;72.70;100777.22;4898120;29;20485;-71
2023/08/18 00:41:33;;;;;;;7.28;6.57;;;;;;;26.80;71.60;100779.59;4895753;29;20484;-71
2023/08/18 00:44:02;;;;;;;8.52;6.93;;;;;;;26.77;71.90;100777.53;4898372;29;20053;-71
2023/08/18 00:46:31;;;;;;;8.27;6.32;;;;;;;26.80;69.68;100782.38;4897880;29;20049;-71
2023/08/18 00:49:02;;;;;;;6.88;5.55;;;;;;;26.71;67.26;100773.47;4896739;29;20492;-71
2023/08/18 00:51:32;;;;;;;7.50;5.57;;;;;;;26.72;66.21;100791.91;4897740;29;20413;-71
2023/08/18 00:54:03;;;;;;;6.45;5.82;;;;;;;26.76;66.72;100781.53;4927498;29;20049;-71
2023/08/18 00:56:31;;;;;;;6.53;5.93;;;;;;;26.73;67.90;100775.91;4896008;29;20052;-71
2023/08/18 00:59:01;;;;;;;8.55;6.43;;;;;;;26.66;69.34;100769.03;4896347;29;20056;-71
2023/08/18 01:01:29;;;;;;;7.25;6.28;;;;;;;26.60;69.87;100773.38;4897724;29;20060;-71
2023/08/18 01:03:57;;;;;;;7.00;6.30;;;;;;;26.46;70.81;100773.22;4895865;29;20052;-71
2023/08/18 01:06:25;;;;;;;7.60;6.80;;;;;;;26.35;71.73;100776.75;4897406;29;20048;-72
2023/08/18 01:08:54;;;;;;;7.13;6.43;;;;;;;26.36;71.24;100771.94;4897224;29;20053;-71
2023/08/18 01:11:58;;;;;;;8.27;5.53;;;;;;;26.42;68.02;100770.38;4897231;29;20055;-71
2023/08/18 01:14:26;;;;;;;6.93;5.78;;;;;;;26.38;66.55;100755.50;4861034;29;20045;-71
2023/08/18 01:17:01;;;;;;;7.07;5.20;;;;;;;26.39;65.80;100760.75;4893467;29;20063;-72
2023/08/18 01:19:30;;;;;;;6.47;5.38;;;;;;;26.38;66.01;100758.31;4897193;29;20060;-71
2023/08/18 01:21:58;;;;;;;5.70;4.95;;;;;;;26.36;65.60;100763.50;4895856;29;20056;-71
2023/08/18 01:24:27;;;;;;;6.32;4.85;;;;;;;26.28;66.07;100757.84;4897148;29;20056;-71
2023/08/18 01:26:55;;;;;;;4.82;4.40;;;;;;;26.22;64.49;100761.31;4897272;29;20056;-71
2023/08/18 01:29:23;;;;;;;4.57;4.00;;;;;;;26.24;62.79;100765.38;4895473;29;20489;-71
2023/08/18 01:31:55;;;;;;;5.22;4.47;;;;;;;26.17;63.88;100762.47;4895740;29;20052;-71
2023/08/18 01:34:25;;;;;;;4.30;3.88;;;;;;;26.09;62.14;100763.59;4897064;29;20511;-71
2023/08/18 01:36:56;;;;;;;3.67;3.15;;;;;;;26.08;62.44;100764.78;4900027;29;20496;-71
2023/08/18 01:39:26;;;;;;;4.78;3.30;;;;;;;26.08;59.88;100759.16;4903633;29;20064;-71
2023/08/18 01:41:54;;;;;;;2.75;2.55;;;;;;;26.02;58.65;100762.34;4903693;29;20056;-71
2023/08/18 01:44:22;;;;;;;2.67;2.35;;;;;;;25.97;58.15;100759.03;4903251;29;20575;-71
2023/08/18 01:46:50;;;;;;;2.60;2.40;;;;;;;25.94;58.93;100760.63;4903540;29;20052;-71
2023/08/18 01:49:20;;;;;;;2.65;2.45;;;;;;;25.91;59.35;100750.19;4903568;29;20504;-71
2023/08/18 01:51:48;;;;;;;2.78;2.30;;;;;;;25.88;57.84;100759.34;4902754;29;20064;-71
2023/08/18 01:54:16;;;;;;;2.47;2.10;;;;;;;25.90;56.31;100756.94;4903486;29;20060;-71
2023/08/18 01:56:44;;;;;;;2.15;1.85;;;;;;;25.88;55.06;100754.56;4903483;29;20061;-71
2023/08/18 01:59:14;;;;;;;2.20;1.90;;;;;;;25.82;54.85;100752.47;4933471;29;20048;-71
2023/08/18 02:01:42;;;;;;;2.95;1.50;;;;;;;25.82;55.23;100744.06;4901570;29;20060;-71
2023/08/18 02:04:11;;;;;;;2.55;1.83;;;;;;;25.70;55.72;100740.31;4903737;29;20061;-71
2023/08/18 02:06:39;;;;;;;2.47;1.50;;;;;;;25.65;55.04;100749.03;4903195;29;20055;-71
2023/08/18 02:09:08;;;;;;;2.80;1.58;;;;;;;25.66;54.49;100744.25;4902143;29;20059;-71
2023/08/18 02:11:36;;;;;;;1.33;1.33;;;;;;;25.64;54.54;100741.81;4901961;29;20198;-71
2023/08/18 02:14:04;;;;;;;1.48;1.30;;;;;;;25.59;55.80;100734.56;4903283;29;20396;-71
2023/08/18 02:16:32;;;;;;;1.63;1.48;;;;;;;25.62;55.38;100738.59;4933471;29;20047;-71
2023/08/18 02:19:00;;;;;;;2.88;2.00;;;;;;;25.58;55.02;100732.97;4902956;29;20056;-71
2023/08/18 02:21:31;;;;;;;1.63;1.40;;;;;;;25.54;55.30;100731.28;4901219;29;20052;-71
2023/08/18 02:23:59;;;;;;;2.60;1.45;;;;;;;25.50;55.99;100739.59;4903183;29;20052;-71
2023/08/18 02:26:27;;;;;;;1.52;1.42;;;;;;;25.49;56.31;100740.81;4901384;29;20064;-71
2023/08/18 02:28:55;;;;;;;2.92;1.58;;;;;;;25.49;56.52;100738.00;4901660;29;20053;-71
2023/08/18 02:31:23;;;;;;;1.67;1.58;;;;;;;25.53;56.19;100729.63;4901423;29;20044;-70
2023/08/18 02:33:51;;;;;;;1.58;1.48;;;;;;;25.46;55.94;100722.75;4903089;29;20047;-70
2023/08/18 02:36:18;;;;;;;3.13;1.65;;;;;;;25.48;56.20;100723.16;4900804;29;20068;-71
2023/08/18 02:38:46;;;;;;;2.08;1.45;;;;;;;25.55;56.14;100727.31;4913731;29;20056;-70
2023/08/18 02:41:16;;;;;;;2.47;1.73;;;;;;;25.53;56.27;100724.03;4902357;29;20044;-70
2023/08/18 02:43:49;;;;;;;2.97;1.77;;;;;;;25.47;55.28;100720.78;4918264;29;20061;-71
2023/08/18 02:46:18;;;;;;;1.58;1.30;;;;;;;25.46;56.20;100728.34;4920152;29;20075;-70
2023/08/18 02:48:46;;;;;;;2.50;1.60;;;;;;;25.46;55.58;100717.16;4919164;29;20060;-71
2023/08/18 02:51:14;;;;;;;1.98;1.20;;;;;;;25.40;57.46;100727.06;4918107;29;20048;-71
2023/08/18 02:53:48;;;;;;;2.53;1.70;;;;;;;25.44;55.63;100721.50;4917447;29;20044;-71
2023/08/18 02:56:16;;;;;;;;;;;;;;;25.35;57.08;100719.81;4917839;29;20548;-71
2023/08/18 02:58:44;;;;;;;1.73;1.60;;;;;;;25.40;56.98;100726.28;4918159;29;20386;-71
2023/08/18 03:01:12;;;;;;;2.67;1.50;;;;;;;25.38;55.92;100718.25;4916557;29;20055;-71
2023/08/18 03:03:40;;;;;;;2.47;1.60;;;;;;;25.32;56.47;100716.97;4918465;29;20052;-71
2023/08/18 03:06:08;;;;;;;1.38;1.27;;;;;;;25.33;56.67;100721.38;4918388;29;20056;-71
2023/08/18 03:08:38;;;;;;;2.10;2.00;;;;;;;25.33;56.32;100715.78;4917852;29;20059;-71
2023/08/18 03:11:08;;;;;;;2.55;1.35;;;;;;;25.26;56.43;100724.88;4916155;29;20064;-71
2023/08/18 03:13:36;;;;;;;1.42;1.30;;;;;;;25.20;57.58;100718.81;4918048;29;20531;-71
2023/08/18 03:16:04;;;;;;;1.63;1.52;;;;;;;25.20;58.08;100718.81;4916340;29;20496;-71
2023/08/18 03:18:34;;;;;;;2.15;1.33;;;;;;;25.20;57.22;100723.59;4918222;29;20063;-71
2023/08/18 03:21:06;;;;;;;1.55;1.45;;;;;;;25.17;57.89;100725.16;4947777;29;20063;-71
2023/08/18 03:23:35;;;;;;;1.83;1.17;;;;;;;25.19;57.06;100728.41;4917743;29;20052;-71
2023/08/18 03:26:04;;;;;;;1.30;1.20;;;;;;;25.17;56.82;100724.34;4918005;29;20056;-71
2023/08/18 03:28:36;;;;;;;1.45;1.35;;;;;;;25.19;56.46;100725.59;4917967;29;20056;-71
2023/08/18 03:31:06;;;;;;;3.22;1.40;;;;;;;25.26;57.35;100726.88;4915968;29;20121;-71
2023/08/18 03:33:36;;;;;;;2.58;1.50;;;;;;;25.36;55.49;100726.22;4916453;29;20059;-71
2023/08/18 03:36:07;;;;;;;1.95;1.65;;;;;;;25.40;55.13;100727.06;4916370;29;20075;-71
2023/08/18 03:38:37;;;;;;;1.50;1.38;;;;;;;25.45;54.99;100723.13;4916286;29;20052;-71
2023/08/18 03:41:06;;;;;;;3.05;1.50;;;;;;;25.51;54.30;100716.00;4916165;29;20500;-71
2023/08/18 03:43:34;;;;;;;3.35;1.67;;;;;;;25.56;54.93;100731.72;4917352;29;20061;-71
2023/08/18 03:46:15;;;;;;;1.80;1.70;;;;;;;25.50;54.38;100729.22;4917549;29;20056;-71
2023/08/18 03:48:43;;;;;;;2.47;1.40;;;;;;;25.34;54.61;100734.19;4947041;29;20060;-71
2023/08/18 03:51:11;;;;;;;1.75;1.65;;;;;;;25.43;55.10;100737.53;4917066;29;20067;-71
2023/08/18 03:53:39;;;;;;;2.53;2.33;;;;;;;25.35;58.02;100733.00;4916407;29;20494;-71
2023/08/18 03:56:07;;;;;;;3.20;2.90;;;;;;;25.30;61.07;100739.75;4917269;29;20063;-71
2023/08/18 03:58:35;;;;;;;3.85;3.45;;;;;;;25.36;61.42;100743.84;4932145;29;20052;-71
2023/08/18 04:01:08;;;;;;;4.93;4.43;;;;;;;25.45;63.83;100739.94;4915897;29;20052;-71
2023/08/18 04:03:42;;;;;;;7.43;5.07;;;;;;;25.11;67.24;100737.06;4915613;29;20052;-71
2023/08/18 04:06:13;;;;;;;8.18;5.50;;;;;;;25.01;76.18;100733.72;4915908;29;20060;-72
2023/08/18 04:08:43;;;;;;;10.38;6.47;;;;;;;24.41;75.67;100747.09;4915468;29;20044;-71
2023/08/18 04:11:12;;;;;;;10.43;6.75;;;;;;;24.48;78.36;100745.59;4947109;29;20418;-72
2023/08/18 04:13:40;;;;;;;12.10;8.07;;;;;;;24.56;80.51;100748.16;4915364;29;20052;-72
2023/08/18 04:16:08;;;;;;;13.95;7.18;;;;;;;24.38;83.02;100744.19;4915547;29;20060;-72
2023/08/18 04:18:38;;;;;;;10.77;7.10;;;;;;;23.84;83.05;100746.72;4915272;29;20060;-72
2023/08/18 04:21:08;;;;;;;10.38;7.63;;;;;;;24.00;82.37;100750.25;4917043;29;20044;-71
2023/08/18 04:23:36;;;;;;;10.95;8.38;;;;;;;23.96;84.04;100756.97;4917106;29;20044;-72
2023/08/18 04:26:04;;;;;;;12.65;8.05;;;;;;;24.26;82.87;100757.19;4915875;29;20044;-73
2023/08/18 04:28:32;;;;;;;11.43;8.63;;;;;;;24.27;82.81;100769.16;4916672;29;20055;-72
2023/08/18 04:31:01;;;;;;;9.98;8.52;;;;;;;24.35;83.17;100770.94;4915154;29;20056;-72
2023/08/18 04:33:37;;;;;;;13.40;8.20;;;;;;;24.48;80.31;100770.78;4915434;29;20060;-72
2023/08/18 04:36:05;;;;;;;7.97;5.50;;;;;;;24.28;77.78;100776.38;4915754;29;20044;-72
2023/08/18 04:38:33;;;;;;;8.82;4.57;;;;;;;24.25;76.89;100775.13;4915099;29;20059;-72
2023/08/18 04:41:05;;;;;;;6.20;5.05;;;;;;;24.08;78.13;100776.41;4914774;29;20522;-72
2023/08/18 04:43:33;;;;;;;6.20;5.18;;;;;;;24.06;80.22;100775.94;4916920;29;20050;-72
2023/08/18 04:46:02;;;;;;;7.28;5.88;;;;;;;24.00;82.92;100777.41;4915020;29;20056;-72
2023/08/18 04:48:32;;;;;;;11.18;6.55;;;;;;;24.07;82.38;100777.59;4914542;29;20514;-71
2023/08/18 04:51:03;;;;;;;8.38;6.45;;;;;;;24.06;81.79;100777.91;4914936;29;20503;-72
2023/08/18 04:53:31;;;;;;;9.00;6.35;;;;;;;24.07;81.96;100785.13;4915333;29;20053;-72
2023/08/18 04:56:03;;;;;;;8.68;6.45;;;;;;;24.05;83.81;100788.28;4915554;29;20055;-72
2023/08/18 04:58:31;;;;;;;9.93;7.32;;;;;;;23.87;84.50;100788.75;4916448;29;20522;-71
2023/08/18 05:01:00;;;;;;;9.70;7.50;;;;;;;23.64;87.37;100793.41;4915052;29;20048;-72
2023/08/18 05:03:31;;;;;;;13.68;10.23;;;;;;;23.51;91.50;100795.50;4930815;29;20060;-72
2023/08/18 05:06:08;;;;;;;11.10;9.50;;;;;;;23.71;92.37;100807.53;4914448;29;20064;-72
2023/08/18 05:08:39;;;;;;;16.10;11.80;;;;;;;23.71;94.69;100802.75;4946197;29;20055;-72
2023/08/18 05:11:09;;;;;;;15.27;11.82;;;;;;;23.58;96.68;100804.88;4915827;29;20059;-71
2023/08/18 05:13:42;;;;;;;16.70;11.65;;;;;;;23.65;97.77;100798.63;4916166;29;20048;-72
2023/08/18 05:16:10;;;;;;;17.55;12.90;;;;;;;23.65;98.64;100803.41;4916325;29;20510;-72
2023/08/18 05:18:38;;;;;;;18.63;13.75;;;;;;;23.66;99.58;100807.81;4916104;29;20399;-72
2023/08/18 05:21:06;;;;;;;17.67;13.13;;;;;;;23.87;98.92;100797.13;4915579;29;20051;-71
2023/08/18 05:23:34;;;;;;;21.63;13.75;;;;;;;23.89;99.54;100800.34;4916283;29;20074;-72
2023/08/18 05:26:02;;;;;;;16.20;12.75;;;;;;;24.14;96.62;100805.69;4916663;29;20059;-72
2023/08/18 05:28:32;;;;;;;16.42;12.13;;;;;;;24.13;97.25;100798.47;4915887;29;20048;-72
2023/08/18 05:31:01;;;;;;;15.80;12.68;;;;;;;24.12;98.59;100796.88;4916088;29;20056;-72
2023/08/18 05:33:29;;;;;;;19.02;13.20;;;;;;;24.12;98.87;100796.03;4915815;29;20059;-72
2023/08/18 05:35:58;;;;;;;19.92;13.23;;;;;;;24.19;98.66;100801.78;4916144;29;20044;-72
2023/08/18 05:38:27;;;;;;;18.83;14.38;;;;;;;24.37;97.56;100802.13;4915841;29;20056;-72
2023/08/18 05:41:07;;;;;;;18.23;12.43;;;;;;;24.25;97.09;100802.28;4915951;29;20036;-71
2023/08/18 05:43:39;;;;;;;17.95;13.38;;;;;;;24.59;95.90;100805.34;4915982;29;20051;-71
2023/08/18 05:46:08;;;;;;;16.98;12.13;;;;;;;24.60;95.96;100815.34;4915770;29;20069;-71
2023/08/18 05:48:36;;;;;;;16.92;12.68;;;;;;;24.31;95.80;100808.38;4915855;29;20051;-71
2023/08/18 05:51:04;;;;;;;16.00;12.52;;;;;;;24.27;96.40;100805.53;4915567;29;20142;-71
2023/08/18 05:53:32;;;;;;;16.13;11.88;;;;;;;24.32;95.27;100818.38;4915732;29;20058;-71
2023/08/18 05:56:00;;;;;;;18.15;12.68;;;;;;;24.31;97.17;100814.81;4915742;29;20546;-72
2023/08/18 05:58:28;;;;;;;15.82;11.98;;;;;;;24.47;95.56;100817.50;4915913;29;20052;-71
2023/08/18 06:00:56;;;;;;;16.35;12.82;;;;;;;24.55;95.44;100812.84;4915319;29;20056;-69
2023/08/18 06:03:24;;;;;;;18.95;12.38;;;;;;;24.72;94.69;100811.56;4915416;29;20508;-71
2023/08/18 06:05:52;;;;;;;14.57;11.27;;;;;;;24.86;92.96;100815.81;4915396;29;20059;-72
2023/08/18 06:08:20;;;;;;;16.13;11.65;;;;;;;25.03;91.94;100814.53;4915522;29;20063;-72
2023/08/18 06:10:50;;;;;;;17.92;12.10;;;;;;;24.92;89.46;100815.13;4915502;29;20121;-71
2023/08/18 06:13:18;;;;;;;13.38;10.00;;;;;;;25.26;90.73;100810.91;4915498;29;20048;-72
2023/08/18 06:15:46;;;;;;;14.43;10.77;;;;;;;25.57;88.55;100820.97;4915819;29;20048;-72
2023/08/18 06:18:13;;;;;;;13.93;10.13;;;;;;;25.84;86.75;100815.34;4915384;29;20044;-72
2023/08/18 06:20:41;;;;;;;17.38;11.90;;;;;;;25.89;88.26;100823.44;4915319;29;20052;-72
2023/08/18 06:23:09;;;;;;;15.48;12.23;;;;;;;26.03;85.87;100814.41;4915657;29;20047;-72
2023/08/18 06:25:38;;;;;;;15.73;10.80;;;;;;;26.22;84.13;100809.81;4918889;29;20048;-71
2023/08/18 06:28:06;;;;;;;15.00;10.68;;;;;;;26.13;83.22;100800.88;4919178;29;20056;-72
2023/08/18 06:30:34;;;;;;;13.52;10.82;;;;;;;26.48;82.04;100805.31;4918918;29;20048;-72
2023/08/18 06:33:03;;;;;;;14.55;10.20;;;;;;;26.60;80.74;100821.09;4919133;29;20074;-71
2023/08/18 06:35:31;;;;;;;14.80;10.98;;;;;;;26.82;78.65;100821.28;4918841;29;20514;-72
2023/08/18 06:37:59;;;;;;;12.60;9.60;;;;;;;26.87;78.42;100823.72;4919022;29;20364;-72
2023/08/18 06:40:27;;;;;;;16.98;10.18;;;;;;;26.89;78.00;100826.16;4919285;29;20060;-72
2023/08/18 06:42:55;;;;;;;14.27;9.38;;;;;;;26.89;76.60;100823.34;4918667;29;20371;-71
2023/08/18 06:45:23;;;;;;;13.25;9.15;;;;;;;27.03;75.55;100823.50;4918197;29;20067;-71
2023/08/18 06:47:50;;;;;;;11.48;9.60;;;;;;;27.13;76.23;100835.22;4917966;29;20056;-72
2023/08/18 06:50:18;;;;;;;13.13;10.10;;;;;;;27.00;75.01;100835.53;4918009;29;20070;-72
2023/08/18 06:52:47;;;;;;;10.18;8.63;;;;;;;27.27;75.53;100832.50;4918323;29;20052;-72
2023/08/18 06:55:15;;;;;;;9.70;8.05;;;;;;;27.42;71.65;100838.25;4918305;29;20373;-70
2023/08/18 06:57:48;;;;;;;11.07;8.52;;;;;;;26.84;73.46;100842.16;4918266;29;20052;-72
2023/08/18 07:00:18;;;;;;;11.45;7.30;;;;;;;26.91;75.71;100838.66;4917951;29;20052;-72
2023/08/18 07:02:49;;;;;;;10.40;8.40;;;;;;;26.92;75.11;100837.47;4917557;29;20053;-72
2023/08/18 07:05:17;;;;;;;10.68;7.72;;;;;;;27.21;73.06;100834.91;4918026;29;20064;-72
2023/08/18 07:07:46;;;;;;;10.10;7.97;;;;;;;27.16;73.28;100835.25;4918169;29;20399;-72
2023/08/18 07:10:14;;;;;;;12.50;8.35;;;;;;;27.18;72.52;100840.50;4918249;29;20055;-72
2023/08/18 07:12:42;;;;;;;12.02;8.20;;;;;;;27.09;71.91;100844.41;4917695;29;20067;-72
2023/08/18 07:15:10;;;;;;;10.88;7.45;;;;;;;27.36;72.47;100858.28;4918156;29;20567;-72
2023/08/18 07:17:38;;;;;;;11.18;8.05;;;;;;;27.59;73.04;100846.03;4918066;29;20052;-72
2023/08/18 07:20:10;;;;;;;11.85;8.20;;;;;;;27.51;71.96;100849.94;4917653;29;20063;-72
2023/08/18 07:22:38;;;;;;;9.35;7.57;;;;;;;27.75;68.91;100848.53;4918119;29;20048;-72
2023/08/18 07:25:07;;;;;;;8.00;6.43;;;;;;;28.11;68.33;100853.53;4915822;29;20059;-71
2023/08/18 07:27:35;;;;;;;8.60;7.63;;;;;;;28.02;67.16;100855.91;4917647;29;20491;-72
2023/08/18 07:30:04;;;;;;;7.80;7.00;;;;;;;28.26;68.52;100862.06;4917466;29;20164;-72
2023/08/18 07:32:32;;;;;;;9.90;7.43;;;;;;;28.48;66.78;100868.56;4917351;29;20067;-72
2023/08/18 07:35:01;;;;;;;7.20;6.20;;;;;;;28.47;65.92;100866.16;4917239;29;20056;-72
2023/08/18 07:37:28;;;;;;;8.25;6.82;;;;;;;28.60;65.64;100863.78;4917346;29;20048;-72
2023/08/18 07:39:59;;;;;;;8.27;7.20;;;;;;;28.67;64.10;100867.41;4917104;29;20056;-72
2023/08/18 07:42:27;;;;;;;8.98;6.80;;;;;;;29.09;64.04;100869.91;4917225;29;20048;-72
2023/08/18 07:44:55;;;;;;;6.80;6.13;;;;;;;29.12;63.41;100871.13;4917720;29;20044;-71
2023/08/18 07:47:23;;;;;;;8.85;6.55;;;;;;;29.24;62.90;100870.72;4917140;29;20052;-72
2023/08/18 07:49:51;;;;;;;8.65;6.93;;;;;;;29.82;62.14;100878.34;4917099;29;20455;-72
2023/08/18 07:52:19;;;;;;;9.52;6.95;;;;;;;29.78;61.05;100870.66;4917306;29;20127;-72
2023/08/18 07:54:47;;;;;;;9.07;6.68;;;;;;;29.74;61.18;100861.44;4917590;29;20056;-72
2023/08/18 07:57:16;;;;;;;7.88;6.28;;;;;;;30.00;60.08;100867.00;4917093;29;20051;-73
2023/08/18 07:59:44;;;;;;;7.75;6.28;;;;;;;29.87;61.50;100872.28;4916941;29;20381;-72
2023/08/18 08:02:12;;;;;;;8.75;6.90;;;;;;;29.60;61.17;100864.25;4917041;29;20052;-72
2023/08/18 08:04:56;;;;;;;;;;;;;;;29.44;61.44;100871.13;4917250;29;20412;-72
2023/08/18 08:07:24;;;;;;;6.65;5.70;;;;;;;30.12;58.72;100872.22;4917765;29;19923;-73
2023/08/18 08:09:56;;;;;;;7.28;5.53;;;;;;;29.67;58.73;100878.38;4917131;29;20059;-73
2023/08/18 08:12:24;;;;;;;6.28;5.68;;;;;;;29.68;58.46;100874.34;4917495;29;20056;-72
2023/08/18 08:14:52;;;;;;;7.70;5.85;;;;;;;29.63;60.06;100869.09;4917140;29;20055;-73
2023/08/18 08:17:20;;;;;;;7.60;6.57;;;;;;;29.43;59.99;100875.16;4917068;29;20056;-72
2023/08/18 08:19:49;;;;;;;5.65;5.03;;;;;;;29.57;57.43;100873.56;4916870;29;20052;-72
2023/08/18 08:22:17;;;;;;;5.25;4.75;;;;;;;29.67;55.41;100883.19;4916637;29;20059;-72
2023/08/18 08:24:45;;;;;;;5.07;4.18;;;;;;;29.76;53.99;100883.59;4917193;29;20056;-72
2023/08/18 08:27:15;;;;;;;4.88;4.47;;;;;;;29.96;52.88;100880.31;4916275;29;20053;-72
2023/08/18 08:29:43;;;;;;;4.15;3.85;;;;;;;29.83;52.57;100875.09;4916492;29;20060;-71
2023/08/18 08:32:11;;;;;;;6.47;4.07;;;;;;;30.54;52.98;100888.56;4916184;29;20408;-72
2023/08/18 08:34:42;;;;;;;5.35;4.65;;;;;;;30.63;50.62;100890.94;4916645;29;20072;-72
2023/08/18 08:37:10;;;;;;;4.82;4.30;;;;;;;30.69;50.91;100890.09;4916459;29;20506;-73
2023/08/18 08:39:38;;;;;;;5.53;4.55;;;;;;;30.94;49.80;100891.97;4916613;29;20494;-71
2023/08/18 08:42:06;;;;;;;4.57;4.05;;;;;;;31.38;49.94;100881.16;4916275;29;20380;-73
2023/08/18 08:44:34;;;;;;;5.10;4.60;;;;;;;31.17;49.59;100895.44;4916131;29;20617;-73
2023/08/18 08:47:02;;;;;;;5.95;4.97;;;;;;;31.04;50.39;100884.63;4915691;29;20052;-73
2023/08/18 08:49:31;;;;;;;4.80;4.25;;;;;;;30.62;50.96;100889.31;4916394;29;20055;-73
2023/08/18 08:52:08;;;;;;;4.85;3.97;;;;;;;30.73;49.34;100890.09;4916089;29;20063;-73
2023/08/18 08:54:43;;;;;;;5.07;4.43;;;;;;;31.09;48.92;100883.41;4916272;29;20412;-70
2023/08/18 08:57:12;;;;;;;4.72;4.20;;;;;;;31.84;47.60;100886.78;4916532;29;20051;-73
2023/08/18 08:59:41;;;;;;;4.78;4.38;;;;;;;31.48;48.71;100873.78;4916311;29;20057;-71
2023/08/18 09:02:09;;;;;;;6.78;4.30;;;;;;;31.80;48.22;100877.50;4916227;29;20056;-72
2023/08/18 09:04:37;;;;;;;6.53;4.60;;;;;;;32.21;48.19;100875.84;4915998;29;20063;-73
2023/08/18 09:07:07;;;;;;;6.72;4.68;;;;;;;32.21;46.56;100875.03;4916168;29;20067;-73
2023/08/18 09:09:35;;;;;;;5.57;4.70;;;;;;;32.32;46.31;100875.72;4916067;29;20123;-73
2023/08/18 09:12:07;;;;;;;4.68;4.28;;;;;;;32.56;45.64;100872.97;4915470;29;20052;-72
2023/08/18 09:14:41;;;;;;;6.00;4.60;;;;;;;32.22;45.70;100863.31;4946746;29;20051;-73
2023/08/18 09:17:09;;;;;;;4.90;4.50;;;;;;;32.37;46.01;100865.94;4916092;29;20052;-72
2023/08/18 09:19:37;;;;;;;6.60;4.45;;;;;;;32.92;45.75;100866.78;4915597;29;20044;-73
2023/08/18 09:22:05;;;;;;;5.35;4.53;;;;;;;32.79;46.10;100871.44;4915947;29;20057;-73
2023/08/18 09:24:33;;;;;;;5.13;4.30;;;;;;;32.37;46.36;100865.94;4915972;29;20041;-72
2023/08/18 09:27:09;;;;;;;5.35;4.43;;;;;;;31.99;45.79;100873.28;4916024;29;20059;-70
2023/08/18 09:29:38;;;;;;;7.15;4.15;;;;;;;32.02;46.65;100874.47;4915973;29;20044;-72
2023/08/18 09:32:09;;;;;;;5.22;4.75;;;;;;;31.87;45.38;100876.66;4915441;29;20060;-72
2023/08/18 09:34:42;;;;;;;;;;;;;;;32.25;46.58;100862.44;4915932;29;20062;-73
2023/08/18 09:37:10;;;;;;;4.97;4.15;;;;;;;32.06;47.11;100866.75;4915584;29;19927;-72
2023/08/18 09:39:38;;;;;;;5.80;4.57;;;;;;;31.88;47.76;100862.09;4915869;29;20412;-72
2023/08/18 09:42:08;;;;;;;5.85;4.85;;;;;;;31.98;46.36;100860.38;4916169;29;20064;-72
2023/08/18 09:44:36;;;;;;;6.95;4.97;;;;;;;32.25;46.57;100858.81;4915463;29;20056;-71
2023/08/18 09:47:06;;;;;;;4.82;4.28;;;;;;;32.34;45.56;100861.13;4915583;29;20055;-72
2023/08/18 09:49:38;;;;;;;5.80;4.72;;;;;;;32.68;44.22;100863.09;4915743;29;20078;-72
2023/08/18 09:52:08;;;;;;;6.78;5.32;;;;;;;32.71;45.31;100857.38;4915504;29;20070;-73
2023/08/18 09:54:45;;;;;;;6.20;5.03;;;;;;;31.64;45.99;100850.63;4915801;29;20044;-72
2023/08/18 09:57:24;;;;;;;6.07;4.80;;;;;;;32.09;46.92;100850.91;4915513;29;20072;-72
2023/08/18 09:59:58;;;;;;;6.95;4.70;;;;;;;32.49;46.06;100850.44;4919627;29;20056;-73
2023/08/18 10:02:32;;;;;;;8.05;4.65;;;;;;;32.37;49.93;100846.91;4919283;29;20048;-73
2023/08/18 10:05:02;;;;;;;6.35;4.97;;;;;;;32.34;44.62;100841.31;4919562;29;20048;-72
2023/08/18 10:07:32;;;;;;;6.88;5.15;;;;;;;32.23;47.34;100835.78;4918405;29;20514;-72
2023/08/18 10:10:00;;;;;;;5.43;4.70;;;;;;;31.96;49.36;100833.72;4933781;29;20048;-73
2023/08/18 10:12:29;;;;;;;6.88;4.95;;;;;;;32.40;45.52;100833.94;4919064;29;20526;-72
2023/08/18 10:14:58;;;;;;;6.80;4.85;;;;;;;33.08;44.64;100837.00;4919087;29;20052;-72
2023/08/18 10:17:27;;;;;;;7.82;5.38;;;;;;;33.26;43.82;100821.72;4919233;29;20522;-71
2023/08/18 10:19:56;;;;;;;5.40;4.82;;;;;;;33.52;42.81;100834.19;4919245;29;20059;-72
2023/08/18 10:22:28;;;;;;;5.47;4.72;;;;;;;33.28;42.88;100841.91;4919257;29;20051;-72
2023/08/18 10:24:57;;;;;;;7.22;4.28;;;;;;;33.50;44.36;100839.47;4919261;29;20480;-71
2023/08/18 10:27:25;;;;;;;5.45;4.90;;;;;;;32.51;43.19;100839.47;4919148;29;20059;-72
2023/08/18 10:29:59;;;;;;;6.03;5.00;;;;;;;32.80;44.41;100831.31;4917714;29;20059;-72
2023/08/18 10:32:30;;;;;;;8.23;5.53;;;;;;;33.42;42.56;100835.19;4918928;29;20056;-73
2023/08/18 10:35:21;;;;;;;7.18;5.45;;;;;;;33.00;46.02;100832.66;4918948;29;20052;-72
2023/08/18 10:38:02;;;;;;;5.45;4.63;;;;;;;33.32;44.70;100825.66;4918917;29;20052;-71
2023/08/18 10:40:35;;;;;;;5.30;4.78;;;;;;;33.54;44.58;100831.75;4918567;29;20062;-72
2023/08/18 10:43:07;;;;;;;5.53;4.97;;;;;;;33.14;44.08;100837.28;4918875;29;20052;-73
2023/08/18 10:45:35;;;;;;;6.80;5.32;;;;;;;33.07;44.02;100829.72;4918426;29;20044;-69
2023/08/18 10:48:05;;;;;;;6.10;5.50;;;;;;;33.21;43.12;100837.16;4918721;29;20044;-72
2023/08/18 10:50:35;;;;;;;6.53;5.93;;;;;;;32.32;47.02;100833.25;4918666;29;20060;-73
2023/08/18 10:53:04;;;;;;;5.80;5.22;;;;;;;32.89;44.68;100821.50;4918447;29;20059;-72
2023/08/18 10:55:33;;;;;;;6.80;5.82;;;;;;;33.08;45.23;100822.84;4918725;29;20052;-73
2023/08/18 10:58:01;;;;;;;7.72;5.13;;;;;;;33.15;46.58;100817.03;4918540;29;20060;-72
2023/08/18 11:00:33;;;;;;;6.80;5.40;;;;;;;33.32;44.07;100814.31;4918250;29;20052;-74
2023/08/18 11:03:05;;;;;;;5.37;4.97;;;;;;;33.67;43.31;100831.09;4918539;29;20048;-71
2023/08/18 11:05:34;;;;;;;7.13;5.25;;;;;;;34.10;43.03;100823.78;4918533;29;20055;-73
2023/08/18 11:08:04;;;;;;;5.90;5.15;;;;;;;34.53;40.88;100824.81;4918480;29;20052;-72
2023/08/18 11:10:33;;;;;;;5.35;4.85;;;;;;;35.02;40.61;100823.25;4917845;29;20059;-73
2023/08/18 11:13:03;;;;;;;6.40;5.05;;;;;;;34.84;40.85;100828.16;4918487;29;20063;-73
2023/08/18 11:15:32;;;;;;;6.93;5.22;;;;;;;34.90;40.80;100819.09;4917145;29;20527;-73
2023/08/18 11:18:00;;;;;;;6.72;5.57;;;;;;;34.54;41.33;100820.72;4918301;29;20051;-72
2023/08/18 11:20:28;;;;;;;6.32;5.35;;;;;;;34.58;41.38;100822.28;4918702;29;20052;-73
2023/08/18 11:22:56;;;;;;;6.00;5.50;;;;;;;34.71;43.42;100821.59;4918143;29;20482;-72
2023/08/18 11:25:25;;;;;;;5.93;5.43;;;;;;;34.56;40.45;100819.03;4917814;29;20067;-72
2023/08/18 11:27:53;;;;;;;6.88;6.13;;;;;;;34.46;44.07;100817.28;4917916;29;20052;-72
2023/08/18 11:30:22;;;;;;;5.57;5.07;;;;;;;33.91;42.48;100807.06;4917972;29;20059;-72
2023/08/18 11:32:52;;;;;;;6.00;5.40;;;;;;;33.87;43.32;100814.06;4917821;29;20056;-72